Time;durP1;ratioP1;P1;durP2;ratioP2;P2;SDS_P1;SDS_P2;PMS_P1;PMS_P2;Temp;Humidity;BMP_temperature;BMP_pressure;BME280_temperature;BME280_humidity;BME280_pressure;Samples;Min_cycle;Max_cycle;Signal;HPM_P1;HPM_P2
2021/08/20 00:01:13;;;;;;;;;;;16.00;99.90;;;;;;1923004;75;20110;-70
2021/08/20 00:03:39;;;;;;;;;;;16.00;99.90;;;;;;1923090;75;20500;-71
2021/08/20 00:06:06;;;;;;;;;;;16.00;99.90;;;;;;1923174;74;20391;-70
2021/08/20 00:08:33;;;;;;;;;;;15.90;99.90;;;;;;1922568;73;20182;-70
2021/08/20 00:11:03;;;;;;;;;;;15.90;99.90;;;;;;1921508;75;20161;-70
2021/08/20 00:13:29;;;;;;;;;;;15.90;99.90;;;;;;1921388;74;20157;-71
2021/08/20 00:15:56;;;;;;;;;;;15.80;99.90;;;;;;1921975;73;20137;-70
2021/08/20 00:18:23;;;;;;;;;;;15.90;99.90;;;;;;1922081;75;20118;-70
2021/08/20 00:20:49;;;;;;;;;;;15.90;99.90;;;;;;1921731;73;20208;-70
2021/08/20 00:23:16;;;;;;;;;;;15.90;99.90;;;;;;1920371;75;20193;-71
2021/08/20 00:25:43;;;;;;;;;;;15.90;99.90;;;;;;1919368;74;20115;-70
2021/08/20 00:28:10;;;;;;;;;;;16.00;99.90;;;;;;1919581;73;20166;-71
2021/08/20 00:30:37;;;;;;;;;;;15.90;99.90;;;;;;1919266;73;20399;-71
2021/08/20 00:33:04;;;;;;;;;;;15.90;99.90;;;;;;1920006;73;20223;-70
2021/08/20 00:35:30;;;;;;;;;;;16.00;99.90;;;;;;1920096;73;20173;-71
2021/08/20 00:37:57;;;;;;;;;;;16.00;99.90;;;;;;1919678;74;20469;-71
2021/08/20 00:40:24;;;;;;;;;;;16.00;99.90;;;;;;1919428;73;20173;-70
2021/08/20 00:42:51;;;;;;;;;;;15.90;99.90;;;;;;1919478;73;20168;-71
2021/08/20 00:45:18;;;;;;;;;;;15.90;99.90;;;;;;1919716;74;20128;-70
2021/08/20 00:47:44;;;;;;;;;;;15.90;99.90;;;;;;1919637;73;20181;-71
2021/08/20 00:50:11;;;;;;;;;;;16.00;99.90;;;;;;1919455;73;20156;-71
2021/08/20 00:52:38;;;;;;;;;;;16.00;99.90;;;;;;1919174;73;20453;-71
2021/08/20 00:55:08;;;;;;;;;;;16.00;99.90;;;;;;1919612;75;20176;-71
2021/08/20 00:57:34;;;;;;;;;;;15.90;99.90;;;;;;1919247;74;20165;-70
2021/08/20 01:00:01;;;;;;;;;;;16.00;99.90;;;;;;1919708;73;20114;-71
2021/08/20 01:02:28;;;;;;;;;;;15.90;99.90;;;;;;1919243;75;20126;-71
2021/08/20 01:04:55;;;;;;;;;;;15.90;99.90;;;;;;1919688;74;20170;-71
2021/08/20 01:07:21;;;;;;;;;;;15.90;99.90;;;;;;1919760;75;20196;-71
2021/08/20 01:09:48;;;;;;;;;;;15.90;99.90;;;;;;1919162;73;20466;-71
2021/08/20 01:12:15;;;;;;;;;;;15.90;99.90;;;;;;1919265;75;20161;-71
2021/08/20 01:14:42;;;;;;;;;;;15.90;99.90;;;;;;1919609;75;20196;-71
2021/08/20 01:17:09;;;;;;;;;;;15.90;99.90;;;;;;1919449;73;20161;-70
2021/08/20 01:19:37;;;;;;;;;;;15.80;99.90;;;;;;1919324;73;20099;-71
2021/08/20 01:22:06;;;;;;;;;;;15.80;99.90;;;;;;1919406;75;20177;-71
2021/08/20 01:24:33;;;;;;;;;;;15.90;99.90;;;;;;1919455;75;20126;-70
2021/08/20 01:27:00;;;;;;;;;;;15.80;99.90;;;;;;1919566;75;20165;-71
2021/08/20 01:29:26;;;;;;;;;;;15.80;99.90;;;;;;1919391;73;20126;-71
2021/08/20 01:31:53;;;;;;;;;;;15.80;99.90;;;;;;1919143;75;20165;-70
2021/08/20 01:34:20;;;;;;;;;;;15.80;99.90;;;;;;1919516;73;20263;-71
2021/08/20 01:36:47;;;;;;;;;;;15.90;99.90;;;;;;1919607;75;20174;-71
2021/08/20 01:39:13;;;;;;;;;;;15.80;99.90;;;;;;1919411;73;20221;-71
2021/08/20 01:41:40;;;;;;;;;;;15.90;99.90;;;;;;1919281;74;20169;-71
2021/08/20 01:44:07;;;;;;;;;;;15.80;99.90;;;;;;1919446;75;20110;-71
2021/08/20 01:46:34;;;;;;;;;;;15.90;99.90;;;;;;1919229;73;20220;-70
2021/08/20 01:49:03;;;;;;;;;;;15.90;99.90;;;;;;1919486;73;20166;-71
2021/08/20 01:51:33;;;;;;;;;;;15.80;99.90;;;;;;1919264;73;20169;-71
2021/08/20 01:54:02;;;;;;;;;;;15.80;99.90;;;;;;1919575;75;20451;-71
2021/08/20 01:56:29;;;;;;;;;;;15.80;99.90;;;;;;1919322;73;20185;-71
2021/08/20 01:58:57;;;;;;;;;;;15.90;99.90;;;;;;1919720;73;20169;-71
2021/08/20 02:01:24;;;;;;;;;;;15.90;99.90;;;;;;1919362;73;20110;-71
2021/08/20 02:03:51;;;;;;;;;;;15.90;99.90;;;;;;1919592;75;20170;-71
2021/08/20 02:06:18;;;;;;;;;;;15.90;99.90;;;;;;1919636;73;20122;-71
2021/08/20 02:08:45;;;;;;;;;;;15.80;99.90;;;;;;1919581;73;20455;-70
2021/08/20 02:11:12;;;;;;;;;;;15.90;99.90;;;;;;1919316;75;20373;-71
2021/08/20 02:13:39;;;;;;;;;;;15.80;99.90;;;;;;1919591;75;20212;-71
2021/08/20 02:16:07;;;;;;;;;;;15.90;99.90;;;;;;1919689;75;20223;-70
2021/08/20 02:18:34;;;;;;;;;;;15.90;99.90;;;;;;1919510;73;20187;-71
2021/08/20 02:21:01;;;;;;;;;;;15.90;99.90;;;;;;1919360;75;20165;-71
2021/08/20 02:23:28;;;;;;;;;;;15.90;99.90;;;;;;1919618;75;20152;-71
2021/08/20 02:25:55;;;;;;;;;;;16.00;99.90;;;;;;1919742;73;20207;-71
2021/08/20 02:28:22;;;;;;;;;;;15.90;99.90;;;;;;1919614;74;20165;-70
2021/08/20 02:30:50;;;;;;;;;;;15.90;99.90;;;;;;1919320;73;20401;-71
2021/08/20 02:33:16;;;;;;;;;;;15.90;99.90;;;;;;1919655;75;20407;-71
2021/08/20 02:35:43;;;;;;;;;;;15.90;99.90;;;;;;1919566;73;20181;-71
2021/08/20 02:38:10;;;;;;;;;;;16.00;99.90;;;;;;1919372;73;20447;-71
2021/08/20 02:40:37;;;;;;;;;;;16.00;99.90;;;;;;1919042;73;20131;-71
2021/08/20 02:43:04;;;;;;;;;;;16.00;99.90;;;;;;1919469;75;20493;-71
2021/08/20 02:45:30;;;;;;;;;;;16.00;99.90;;;;;;1919485;74;20168;-71
2021/08/20 02:47:57;;;;;;;;;;;16.00;99.90;;;;;;1919524;75;20141;-70
2021/08/20 02:50:24;;;;;;;;;;;16.00;99.90;;;;;;1919267;73;20470;-71
2021/08/20 02:52:51;;;;;;;;;;;16.10;99.90;;;;;;1919545;73;20148;-71
2021/08/20 02:55:18;;;;;;;;;;;16.10;99.90;;;;;;1919712;73;20489;-71
2021/08/20 02:57:44;;;;;;;;;;;16.10;99.90;;;;;;1919478;73;20220;-71
2021/08/20 03:00:12;;;;;;;;;;;16.10;99.90;;;;;;1919570;73;20410;-71
2021/08/20 03:02:38;;;;;;;;;;;16.10;99.90;;;;;;1919423;75;20207;-71
2021/08/20 03:05:06;;;;;;;;;;;16.10;99.90;;;;;;1919755;75;20138;-71
2021/08/20 03:07:32;;;;;;;;;;;16.10;99.90;;;;;;1919673;75;20162;-70
2021/08/20 03:09:59;;;;;;;;;;;16.10;99.90;;;;;;1919511;73;20153;-71
2021/08/20 03:12:26;;;;;;;;;;;16.10;99.90;;;;;;1919511;74;20230;-70
2021/08/20 03:14:53;;;;;;;;;;;16.10;99.90;;;;;;1919460;75;20122;-71
2021/08/20 03:17:20;;;;;;;;;;;16.10;99.90;;;;;;1919478;73;20122;-70
2021/08/20 03:19:47;;;;;;;;;;;16.10;99.90;;;;;;1919451;73;20177;-71
2021/08/20 03:22:13;;;;;;;;;;;16.10;99.90;;;;;;1919447;75;20129;-71
2021/08/20 03:24:40;;;;;;;;;;;16.10;99.90;;;;;;1919580;73;20160;-70
2021/08/20 03:27:07;;;;;;;;;;;16.10;99.90;;;;;;1919467;73;20184;-70
2021/08/20 03:29:34;;;;;;;;;;;16.10;99.90;;;;;;1919723;73;20122;-71
2021/08/20 03:32:01;;;;;;;;;;;16.10;99.90;;;;;;1919202;75;20215;-71
2021/08/20 03:34:27;;;;;;;;;;;16.10;99.90;;;;;;1919572;73;20203;-71
2021/08/20 03:36:55;;;;;;;;;;;16.10;99.90;;;;;;1919825;75;20410;-71
2021/08/20 03:39:22;;;;;;;;;;;16.10;99.90;;;;;;1919347;73;20387;-71
2021/08/20 03:41:49;;;;;;;;;;;16.10;99.90;;;;;;1919195;75;20454;-71
2021/08/20 03:44:16;;;;;;;;;;;16.10;99.90;;;;;;1919513;74;20117;-71
2021/08/20 03:46:43;;;;;;;;;;;16.10;99.90;;;;;;1919606;73;20122;-70
2021/08/20 03:49:10;;;;;;;;;;;16.10;99.90;;;;;;1919670;73;20169;-71
2021/08/20 03:51:37;;;;;;;;;;;16.10;99.90;;;;;;1919368;74;20106;-71
2021/08/20 03:54:03;;;;;;;;;;;16.20;99.90;;;;;;1919479;73;20165;-71
2021/08/20 03:56:30;;;;;;;;;;;16.10;99.90;;;;;;1919387;75;20183;-71
2021/08/20 03:58:58;;;;;;;;;;;16.10;99.90;;;;;;1919610;73;20125;-71
2021/08/20 04:01:25;;;;;;;;;;;16.10;99.90;;;;;;1919199;74;20118;-71
2021/08/20 04:03:52;;;;;;;;;;;16.20;99.90;;;;;;1919632;73;20153;-71
2021/08/20 04:06:19;;;;;;;;;;;16.10;99.90;;;;;;1919658;75;20191;-71
2021/08/20 04:08:46;;;;;;;;;;;16.10;99.90;;;;;;1919367;73;20775;-70
2021/08/20 04:11:13;;;;;;;;;;;16.10;99.90;;;;;;1919395;74;20133;-71
2021/08/20 04:13:40;;;;;;;;;;;16.10;99.90;;;;;;1919524;73;20443;-71
2021/08/20 04:16:07;;;;;;;;;;;16.10;99.90;;;;;;1919403;73;20134;-71
2021/08/20 04:18:34;;;;;;;;;;;16.10;99.90;;;;;;1919570;73;20122;-70
2021/08/20 04:21:01;;;;;;;;;;;16.00;99.90;;;;;;1919184;73;20482;-71
2021/08/20 04:23:27;;;;;;;;;;;16.10;99.90;;;;;;1919566;75;20121;-70
2021/08/20 04:25:54;;;;;;;;;;;16.00;99.90;;;;;;1919566;73;20219;-71
2021/08/20 04:28:21;;;;;;;;;;;16.00;99.90;;;;;;1919505;73;20218;-71
2021/08/20 04:30:48;;;;;;;;;;;16.00;99.90;;;;;;1919318;73;20145;-71
2021/08/20 04:33:15;;;;;;;;;;;16.00;99.90;;;;;;1919519;75;20219;-71
2021/08/20 04:35:41;;;;;;;;;;;16.00;99.90;;;;;;1919489;75;20153;-71
2021/08/20 04:38:08;;;;;;;;;;;16.00;99.90;;;;;;1919581;75;20397;-70
2021/08/20 04:40:35;;;;;;;;;;;16.00;99.90;;;;;;1919138;73;20486;-70
2021/08/20 04:43:02;;;;;;;;;;;16.00;99.90;;;;;;1919540;73;20380;-71
2021/08/20 04:45:29;;;;;;;;;;;16.00;99.90;;;;;;1919516;75;20211;-71
2021/08/20 04:47:56;;;;;;;;;;;16.00;99.90;;;;;;1919542;75;20195;-71
2021/08/20 04:50:26;;;;;;;;;;;16.00;99.90;;;;;;1919329;73;20430;-71
2021/08/20 04:52:51;;;;;;;;;;;16.00;99.90;;;;;;1918983;74;20215;-71
2021/08/20 04:55:18;;;;;;;;;;;16.00;99.90;;;;;;1919425;73;20172;-71
2021/08/20 04:57:44;;;;;;;;;;;16.00;99.90;;;;;;1919744;73;20125;-71
2021/08/20 05:00:11;;;;;;;;;;;16.00;99.90;;;;;;1919280;73;20154;-71
2021/08/20 05:02:38;;;;;;;;;;;16.00;99.90;;;;;;1919037;73;20178;-71
2021/08/20 05:05:06;;;;;;;;;;;16.00;99.90;;;;;;1919432;75;20119;-70
2021/08/20 05:07:38;;;;;;;;;;;16.00;99.90;;;;;;1919494;75;20122;-71
2021/08/20 05:10:09;;;;;;;;;;;16.00;99.90;;;;;;1919512;73;20230;-71
2021/08/20 05:12:34;;;;;;;;;;;16.00;99.90;;;;;;1919646;73;20177;-71
2021/08/20 05:15:01;;;;;;;;;;;16.00;99.90;;;;;;1919369;74;20133;-71
2021/08/20 05:17:28;;;;;;;;;;;16.00;99.90;;;;;;1919569;73;20173;-71
2021/08/20 05:19:55;;;;;;;;;;;16.00;99.90;;;;;;1919409;73;20165;-71
2021/08/20 05:22:21;;;;;;;;;;;16.00;99.90;;;;;;1919162;75;20118;-71
2021/08/20 05:24:48;;;;;;;;;;;16.10;99.90;;;;;;1919714;74;20154;-70
2021/08/20 05:27:15;;;;;;;;;;;16.00;99.90;;;;;;1919872;75;20115;-71
2021/08/20 05:29:42;;;;;;;;;;;16.00;99.90;;;;;;1919668;73;20122;-70
2021/08/20 05:32:09;;;;;;;;;;;16.00;99.90;;;;;;1919315;74;20126;-71
2021/08/20 05:34:36;;;;;;;;;;;16.00;99.90;;;;;;1919522;73;20138;-70
2021/08/20 05:37:03;;;;;;;;;;;16.00;99.90;;;;;;1919616;75;20199;-71
2021/08/20 05:39:30;;;;;;;;;;;16.00;99.90;;;;;;1919547;73;20118;-71
2021/08/20 05:41:56;;;;;;;;;;;16.00;99.90;;;;;;1919326;73;20160;-70
2021/08/20 05:44:23;;;;;;;;;;;16.00;99.90;;;;;;1919771;75;20157;-71
2021/08/20 05:46:50;;;;;;;;;;;16.00;99.90;;;;;;1919836;75;20111;-71
2021/08/20 05:49:17;;;;;;;;;;;16.00;99.90;;;;;;1919660;73;20118;-70
2021/08/20 05:51:44;;;;;;;;;;;16.00;99.90;;;;;;1919317;75;20181;-71
2021/08/20 05:54:10;;;;;;;;;;;16.00;99.90;;;;;;1919616;75;20177;-71
2021/08/20 05:56:37;;;;;;;;;;;16.00;99.90;;;;;;1919611;75;20185;-71
2021/08/20 05:59:04;;;;;;;;;;;16.00;99.90;;;;;;1919576;73;20126;-71
2021/08/20 06:01:31;;;;;;;;;;;16.10;99.90;;;;;;1919402;73;20208;-71
2021/08/20 06:03:58;;;;;;;;;;;16.10;99.90;;;;;;1919679;73;20191;-71
2021/08/20 06:06:25;;;;;;;;;;;16.10;99.90;;;;;;1919575;74;20166;-71
2021/08/20 06:08:52;;;;;;;;;;;16.10;99.90;;;;;;1919535;73;20111;-71
2021/08/20 06:11:19;;;;;;;;;;;16.10;99.90;;;;;;1919400;75;20153;-70
2021/08/20 06:13:49;;;;;;;;;;;16.10;99.90;;;;;;1919474;74;20196;-71
2021/08/20 06:16:14;;;;;;;;;;;16.10;99.90;;;;;;1919324;74;20165;-70
2021/08/20 06:18:41;;;;;;;;;;;16.10;99.90;;;;;;1919523;73;20177;-70
2021/08/20 06:21:08;;;;;;;;;;;16.20;99.90;;;;;;1919316;73;20173;-71
2021/08/20 06:23:35;;;;;;;;;;;16.10;99.90;;;;;;1919597;75;20118;-71
2021/08/20 06:26:02;;;;;;;;;;;16.20;99.90;;;;;;1919627;75;20491;-70
2021/08/20 06:28:28;;;;;;;;;;;16.20;99.90;;;;;;1919527;73;20169;-71
2021/08/20 06:30:56;;;;;;;;;;;16.20;99.90;;;;;;1919380;75;20388;-71
2021/08/20 06:33:23;;;;;;;;;;;16.20;99.90;;;;;;1919587;73;20142;-71
2021/08/20 06:35:50;;;;;;;;;;;16.10;99.90;;;;;;1919544;73;20180;-70
2021/08/20 06:38:17;;;;;;;;;;;16.20;99.90;;;;;;1919603;74;20199;-71
2021/08/20 06:40:44;;;;;;;;;;;16.20;99.90;;;;;;1919298;73;20123;-71
2021/08/20 06:43:11;;;;;;;;;;;16.20;99.90;;;;;;1919560;73;20161;-71
2021/08/20 06:45:38;;;;;;;;;;;16.30;99.90;;;;;;1919548;74;20164;-71
2021/08/20 06:48:05;;;;;;;;;;;16.30;99.90;;;;;;1919635;75;20181;-71
2021/08/20 06:50:32;;;;;;;;;;;16.30;99.90;;;;;;1919264;73;20463;-71
2021/08/20 06:52:59;;;;;;;;;;;16.30;99.90;;;;;;1919540;75;20212;-70
2021/08/20 06:55:26;;;;;;;;;;;16.30;99.90;;;;;;1919379;75;20145;-71
2021/08/20 06:57:52;;;;;;;;;;;16.40;99.90;;;;;;1919348;73;20148;-70
2021/08/20 07:00:19;;;;;;;;;;;16.40;99.90;;;;;;1919262;73;20177;-71
2021/08/20 07:02:47;;;;;;;;;;;16.40;99.90;;;;;;1919256;73;20426;-71
2021/08/20 07:05:15;;;;;;;;;;;16.50;99.90;;;;;;1919712;75;20581;-71
2021/08/20 07:07:42;;;;;;;;;;;16.50;99.90;;;;;;1919455;74;20451;-71
2021/08/20 07:10:13;;;;;;;;;;;16.60;99.90;;;;;;1919712;73;20387;-71
2021/08/20 07:12:40;;;;;;;;;;;16.60;99.90;;;;;;1919510;75;20181;-71
2021/08/20 07:15:08;;;;;;;;;;;16.60;99.90;;;;;;1919525;75;20146;-70
2021/08/20 07:17:35;;;;;;;;;;;16.50;99.90;;;;;;1919607;75;20168;-71
2021/08/20 07:20:03;;;;;;;;;;;16.60;99.90;;;;;;1919624;73;20199;-71
2021/08/20 07:22:30;;;;;;;;;;;16.60;99.90;;;;;;1919495;75;20185;-71
2021/08/20 07:24:57;;;;;;;;;;;16.50;99.90;;;;;;1919575;75;20118;-71
2021/08/20 07:27:23;;;;;;;;;;;16.50;99.90;;;;;;1919475;73;20482;-70
2021/08/20 07:29:50;;;;;;;;;;;16.50;99.90;;;;;;1919600;73;20177;-71
2021/08/20 07:32:17;;;;;;;;;;;16.50;99.90;;;;;;1919321;75;20484;-71
2021/08/20 07:34:44;;;;;;;;;;;16.50;99.90;;;;;;1919556;75;20215;-71
2021/08/20 07:37:11;;;;;;;;;;;16.60;99.90;;;;;;1919594;74;20126;-71
2021/08/20 07:39:38;;;;;;;;;;;16.60;99.90;;;;;;1919553;73;20138;-69
2021/08/20 07:42:05;;;;;;;;;;;16.60;99.90;;;;;;1919304;74;20145;-71
2021/08/20 07:44:33;;;;;;;;;;;16.60;99.90;;;;;;1919645;75;20207;-71
2021/08/20 07:47:00;;;;;;;;;;;16.60;99.90;;;;;;1919582;75;20380;-71
2021/08/20 07:49:29;;;;;;;;;;;16.60;99.90;;;;;;1919575;73;20447;-70
2021/08/20 07:51:56;;;;;;;;;;;16.70;99.90;;;;;;1919214;74;20121;-71
2021/08/20 07:54:23;;;;;;;;;;;16.70;99.90;;;;;;1919490;75;20181;-71
2021/08/20 07:56:50;;;;;;;;;;;16.70;99.90;;;;;;1919584;75;20163;-70
2021/08/20 07:59:17;;;;;;;;;;;16.80;99.90;;;;;;1919584;73;20180;-70
2021/08/20 08:01:44;;;;;;;;;;;16.80;99.90;;;;;;1919281;75;20160;-71
2021/08/20 08:04:11;;;;;;;;;;;16.80;99.90;;;;;;1919530;75;20484;-71
2021/08/20 08:06:38;;;;;;;;;;;16.90;99.90;;;;;;1919478;75;20193;-71
2021/08/20 08:09:06;;;;;;;;;;;16.90;99.90;;;;;;1919519;73;20196;-71
2021/08/20 08:11:32;;;;;;;;;;;16.90;99.90;;;;;;1919211;74;20180;-70
2021/08/20 08:14:06;;;;;;;;;;;16.90;99.90;;;;;;1919618;75;20158;-71
2021/08/20 08:16:34;;;;;;;;;;;17.00;99.90;;;;;;1919472;75;20294;-71
2021/08/20 08:19:01;;;;;;;;;;;17.00;99.90;;;;;;1919228;73;20106;-71
2021/08/20 08:21:28;;;;;;;;;;;17.00;99.90;;;;;;1919359;75;20161;-71
2021/08/20 08:23:56;;;;;;;;;;;17.00;99.90;;;;;;1919554;75;20156;-70
2021/08/20 08:26:23;;;;;;;;;;;17.10;99.90;;;;;;1919491;73;20184;-71
2021/08/20 08:28:50;;;;;;;;;;;17.10;99.90;;;;;;1919576;73;20219;-76
2021/08/20 08:31:17;;;;;;;;;;;17.10;99.90;;;;;;1919360;75;20176;-71
2021/08/20 08:33:44;;;;;;;;;;;17.10;99.90;;;;;;1919644;73;20153;-71
2021/08/20 08:36:11;;;;;;;;;;;17.10;99.90;;;;;;1919476;74;20115;-71
2021/08/20 08:38:38;;;;;;;;;;;17.10;99.90;;;;;;1919496;73;20439;-71
2021/08/20 08:41:05;;;;;;;;;;;17.10;99.90;;;;;;1919341;75;20161;-71
2021/08/20 08:43:32;;;;;;;;;;;17.10;99.90;;;;;;1919419;73;20148;-70
2021/08/20 08:46:03;;;;;;;;;;;17.20;99.90;;;;;;1919490;75;20534;-71
2021/08/20 08:48:31;;;;;;;;;;;17.20;99.90;;;;;;1919353;73;20153;-70
2021/08/20 08:51:03;;;;;;;;;;;17.20;99.90;;;;;;1919393;75;20494;-71
2021/08/20 08:53:27;;;;;;;;;;;17.30;99.90;;;;;;1917958;74;20133;-71
2021/08/20 08:55:54;;;;;;;;;;;17.20;99.90;;;;;;1919467;73;20180;-71
2021/08/20 08:58:21;;;;;;;;;;;17.30;99.90;;;;;;1919752;75;20111;-71
2021/08/20 09:00:48;;;;;;;;;;;17.30;99.90;;;;;;1919636;73;20411;-70
2021/08/20 09:03:21;;;;;;;;;;;17.40;99.90;;;;;;1919918;75;20200;-71
2021/08/20 09:05:48;;;;;;;;;;;17.40;99.90;;;;;;1919866;75;20636;-71
2021/08/20 09:08:17;;;;;;;;;;;17.40;99.90;;;;;;1919822;75;20150;-71
2021/08/20 09:10:48;;;;;;;;;;;17.40;99.90;;;;;;1919532;73;20122;-71
2021/08/20 09:13:15;;;;;;;;;;;17.50;99.90;;;;;;1919801;73;20185;-71
2021/08/20 09:15:41;;;;;;;;;;;17.50;99.90;;;;;;1919811;75;20203;-71
2021/08/20 09:18:08;;;;;;;;;;;17.50;99.90;;;;;;1919849;75;20126;-71
2021/08/20 09:20:36;;;;;;;;;;;17.50;99.90;;;;;;1919540;73;20418;-71
2021/08/20 09:23:05;;;;;;;;;;;17.50;99.90;;;;;;1919813;75;20181;-70
2021/08/20 09:25:39;;;;;;;;;;;17.50;99.90;;;;;;1917646;74;20182;-71
2021/08/20 09:28:16;;;;;;;;;;;17.60;99.90;;;;;;1919789;75;20173;-71
2021/08/20 09:30:44;;;;;;;;;;;17.70;99.90;;;;;;1919466;73;20631;-70
2021/08/20 09:33:13;;;;;;;;;;;17.80;99.90;;;;;;1919733;74;20169;-71
2021/08/20 09:35:40;;;;;;;;;;;17.90;99.90;;;;;;1919754;75;20164;-71
2021/08/20 09:38:11;;;;;;;;;;;17.90;99.90;;;;;;1919851;74;20118;-70
2021/08/20 09:40:39;;;;;;;;;;;17.90;99.90;;;;;;1919481;73;20452;-71
2021/08/20 09:43:13;;;;;;;;;;;17.90;99.90;;;;;;1919801;75;20173;-71
2021/08/20 09:45:39;;;;;;;;;;;17.90;99.90;;;;;;1919737;73;20451;-71
2021/08/20 09:48:05;;;;;;;;;;;18.00;99.90;;;;;;1919735;74;20164;-70
2021/08/20 09:50:40;;;;;;;;;;;18.10;99.90;;;;;;1919324;73;20184;-71
2021/08/20 09:53:13;;;;;;;;;;;18.30;99.90;;;;;;1919616;75;20161;-71
2021/08/20 09:55:41;;;;;;;;;;;18.40;99.90;;;;;;1919618;75;20458;-71
2021/08/20 09:58:10;;;;;;;;;;;18.40;99.90;;;;;;1919647;75;20439;-71
2021/08/20 10:00:37;;;;;;;;;;;18.40;99.90;;;;;;1919575;73;20211;-71
2021/08/20 10:03:05;;;;;;;;;;;18.40;99.90;;;;;;1919694;73;20175;-71
2021/08/20 10:05:33;;;;;;;;;;;18.40;99.90;;;;;;1918632;74;20945;-70
2021/08/20 10:08:02;;;;;;;;;;;18.40;99.90;;;;;;1919721;74;20474;-71
2021/08/20 10:10:32;;;;;;;;;;;18.40;99.90;;;;;;1918179;73;20220;-70
2021/08/20 10:13:00;;;;;;;;;;;18.50;99.90;;;;;;1920956;75;20141;-70
2021/08/20 10:15:27;;;;;;;;;;;18.60;99.90;;;;;;1921040;75;20157;-71
2021/08/20 10:17:54;;;;;;;;;;;18.70;99.90;;;;;;1921072;74;20122;-71
2021/08/20 10:20:21;;;;;;;;;;;18.60;99.90;;;;;;1920834;73;20472;-71
2021/08/20 10:22:49;;;;;;;;;;;18.50;99.90;;;;;;1921084;75;20158;-71
2021/08/20 10:25:16;;;;;;;;;;;18.50;99.90;;;;;;1920948;73;20177;-70
2021/08/20 10:27:42;;;;;;;;;;;18.60;99.90;;;;;;1921008;73;20121;-70
2021/08/20 10:30:10;;;;;;;;;;;18.70;99.90;;;;;;1921184;73;20165;-70
2021/08/20 10:32:37;;;;;;;;;;;18.70;99.90;;;;;;1920842;75;20121;-71
2021/08/20 10:35:03;;;;;;;;;;;18.60;99.90;;;;;;1921106;75;20173;-71
2021/08/20 10:37:31;;;;;;;;;;;18.60;99.90;;;;;;1921000;75;20126;-71
2021/08/20 10:40:03;;;;;;;;;;;18.60;99.90;;;;;;1921061;73;20119;-70
2021/08/20 10:42:36;;;;;;;;;;;18.70;99.90;;;;;;1917039;74;20181;-71
2021/08/20 10:45:05;;;;;;;;;;;18.80;99.90;;;;;;1919597;73;20212;-71
2021/08/20 10:47:31;;;;;;;;;;;18.80;99.90;;;;;;1919432;74;20178;-71
2021/08/20 10:50:09;;;;;;;;;;;18.90;99.90;;;;;;1919599;73;20200;-71
2021/08/20 10:52:37;;;;;;;;;;;19.10;99.90;;;;;;1919274;73;20490;-72
2021/08/20 10:55:05;;;;;;;;;;;19.10;99.90;;;;;;1919603;75;20346;-72
2021/08/20 10:57:39;;;;;;;;;;;19.10;99.90;;;;;;1919552;75;20438;-72
2021/08/20 11:00:07;;;;;;;;;;;19.30;99.90;;;;;;1919563;73;20181;-72
2021/08/20 11:02:41;;;;;;;;;;;19.40;99.90;;;;;;1919273;73;20153;-72
2021/08/20 11:05:11;;;;;;;;;;;19.40;99.90;;;;;;1919647;75;20145;-71
2021/08/20 11:07:45;;;;;;;;;;;19.30;99.90;;;;;;1919478;73;20196;-72
2021/08/20 11:10:13;;;;;;;;;;;19.20;99.90;;;;;;1919680;73;20121;-72
2021/08/20 11:12:54;;;;;;;;;;;19.20;99.90;;;;;;1919370;73;20165;-71
2021/08/20 11:15:22;;;;;;;;;;;19.20;99.90;;;;;;1919595;74;20431;-72
2021/08/20 11:17:56;;;;;;;;;;;19.20;99.90;;;;;;1919711;73;20173;-72
2021/08/20 11:20:25;;;;;;;;;;;19.20;99.90;;;;;;1919231;73;20169;-72
2021/08/20 11:23:15;;;;;;;;;;;19.30;99.90;;;;;;1919525;74;20392;-72
2021/08/20 11:25:45;;;;;;;;;;;19.50;99.90;;;;;;1919531;74;20188;-72
2021/08/20 11:28:20;;;;;;;;;;;19.50;99.90;;;;;;1919333;75;20152;-72
2021/08/20 11:30:57;;;;;;;;;;;19.40;99.90;;;;;;1919070;73;20117;-71
2021/08/20 11:33:24;;;;;;;;;;;19.30;99.90;;;;;;1919354;75;20169;-72
2021/08/20 11:35:53;;;;;;;;;;;19.20;99.90;;;;;;1919585;75;20154;-72
2021/08/20 11:38:27;;;;;;;;;;;19.20;99.90;;;;;;1919522;73;20184;-72
2021/08/20 11:40:53;;;;;;;;;;;19.10;99.90;;;;;;1918975;74;20126;-72
2021/08/20 11:46:24;;;;;;;;;;;19.00;99.90;;;;;;1918765;75;20207;-72
2021/08/20 11:48:52;;;;;;;;;;;19.00;99.90;;;;;;1919563;73;20216;-72
2021/08/20 11:51:26;;;;;;;;;;;19.00;99.90;;;;;;1919334;73;20160;-72
2021/08/20 11:53:53;;;;;;;;;;;19.00;99.90;;;;;;1919372;75;20126;-71
2021/08/20 11:56:20;;;;;;;;;;;19.00;99.90;;;;;;1919490;75;20439;-72
2021/08/20 11:58:47;;;;;;;;;;;19.00;99.90;;;;;;1919580;73;20114;-72
2021/08/20 12:01:24;;;;;;;;;;;19.00;99.90;;;;;;1919267;75;20467;-72
2021/08/20 12:03:53;;;;;;;;;;;19.00;99.90;;;;;;1919386;73;20129;-72
2021/08/20 12:06:19;;;;;;;;;;;18.90;99.90;;;;;;1918229;75;20138;-72
2021/08/20 12:08:47;;;;;;;;;;;19.10;99.90;;;;;;1919557;73;20178;-72
2021/08/20 12:11:14;;;;;;;;;;;19.10;99.90;;;;;;1919262;73;20195;-71
2021/08/20 12:13:44;;;;;;;;;;;19.20;99.90;;;;;;1919377;75;20197;-72
2021/08/20 12:16:11;;;;;;;;;;;19.30;99.90;;;;;;1919483;75;20148;-72
2021/08/20 12:18:42;;;;;;;;;;;19.30;99.90;;;;;;1919557;73;20153;-71
2021/08/20 12:21:16;;;;;;;;;;;19.40;99.90;;;;;;1919368;73;20407;-72
2021/08/20 12:23:55;;;;;;;;;;;19.50;99.90;;;;;;1919573;75;20477;-72
2021/08/20 12:26:22;;;;;;;;;;;19.40;99.90;;;;;;1919578;75;20153;-72
2021/08/20 12:28:50;;;;;;;;;;;19.40;99.90;;;;;;1919532;73;20447;-72
2021/08/20 12:31:19;;;;;;;;;;;19.30;99.90;;;;;;1919396;73;20157;-72
2021/08/20 12:33:58;;;;;;;;;;;19.30;99.90;;;;;;1919170;74;20197;-72
2021/08/20 12:36:25;;;;;;;;;;;19.30;99.90;;;;;;1919459;73;20501;-72
2021/08/20 12:39:10;;;;;;;;;;;19.20;99.90;;;;;;1919567;73;20425;-72
2021/08/20 12:41:40;;;;;;;;;;;19.20;99.90;;;;;;1919326;75;20161;-72
2021/08/20 12:44:11;;;;;;;;;;;19.10;99.90;;;;;;1919444;73;20197;-72
2021/08/20 12:46:43;;;;;;;;;;;19.10;99.90;;;;;;1919377;75;20491;-72
2021/08/20 12:49:11;;;;;;;;;;;19.00;99.90;;;;;;1919448;73;20114;-70
2021/08/20 12:51:38;;;;;;;;;;;19.00;99.90;;;;;;1919213;75;20117;-70
2021/08/20 12:54:14;;;;;;;;;;;19.10;99.90;;;;;;1919614;74;20154;-70
2021/08/20 12:56:41;;;;;;;;;;;19.00;99.90;;;;;;1919780;75;20113;-71
2021/08/20 12:59:09;;;;;;;;;;;19.00;99.90;;;;;;1919370;73;20199;-71
2021/08/20 13:01:37;;;;;;;;;;;18.90;99.90;;;;;;1919386;75;20462;-72
2021/08/20 13:04:04;;;;;;;;;;;18.90;99.90;;;;;;1919317;73;20541;-71
2021/08/20 13:06:31;;;;;;;;;;;18.80;99.90;;;;;;1919607;75;20133;-72
2021/08/20 13:08:58;;;;;;;;;;;18.80;99.90;;;;;;1919414;73;20181;-71
2021/08/20 13:11:25;;;;;;;;;;;18.70;99.90;;;;;;1919367;73;20145;-71
2021/08/20 13:13:52;;;;;;;;;;;18.70;99.90;;;;;;1919404;73;20228;-71
2021/08/20 13:16:19;;;;;;;;;;;18.60;99.90;;;;;;1919337;75;20427;-72
2021/08/20 13:18:46;;;;;;;;;;;18.50;99.90;;;;;;1919171;73;20517;-71
2021/08/20 13:21:19;;;;;;;;;;;18.40;99.90;;;;;;1919221;73;20200;-71
2021/08/20 13:23:41;;;;;;;;;;;18.50;99.90;;;;;;1918573;73;20137;-72
2021/08/20 13:26:08;;;;;;;;;;;18.80;99.90;;;;;;1919376;75;20145;-70
2021/08/20 13:28:35;;;;;;;;;;;19.10;99.90;;;;;;1919384;73;20122;-71
2021/08/20 13:31:03;;;;;;;;;;;19.30;99.90;;;;;;1919288;73;20164;-71
2021/08/20 13:33:30;;;;;;;;;;;19.60;99.90;;;;;;1919368;75;20121;-72
2021/08/20 13:35:56;;;;;;;;;;;19.80;99.90;;;;;;1919275;73;20504;-71
2021/08/20 13:38:23;;;;;;;;;;;20.00;99.90;;;;;;1919656;75;20126;-71
2021/08/20 13:40:50;;;;;;;;;;;20.30;99.90;;;;;;1919095;73;20115;-70
2021/08/20 13:43:17;;;;;;;;;;;20.30;99.90;;;;;;1919463;73;20161;-71
2021/08/20 13:45:45;;;;;;;;;;;20.50;99.90;;;;;;1919467;73;20182;-72
2021/08/20 13:48:12;;;;;;;;;;;20.60;99.90;;;;;;1919665;73;20121;-72
2021/08/20 13:50:40;;;;;;;;;;;20.50;99.90;;;;;;1919209;73;20180;-72
2021/08/20 13:53:07;;;;;;;;;;;20.60;99.90;;;;;;1919694;75;20114;-71
2021/08/20 13:55:34;;;;;;;;;;;20.50;99.90;;;;;;1919681;75;20181;-72
2021/08/20 13:58:01;;;;;;;;;;;20.40;99.90;;;;;;1919400;75;20184;-71
2021/08/20 14:00:28;;;;;;;;;;;20.40;99.90;;;;;;1919251;73;20173;-72
2021/08/20 14:02:55;;;;;;;;;;;20.30;99.90;;;;;;1919490;73;20188;-71
2021/08/20 14:05:22;;;;;;;;;;;20.10;99.90;;;;;;1919675;75;20122;-72
2021/08/20 14:07:49;;;;;;;;;;;20.00;99.90;;;;;;1919610;75;20157;-71
2021/08/20 14:10:16;;;;;;;;;;;20.00;99.90;;;;;;1919447;73;20169;-71
2021/08/20 14:12:43;;;;;;;;;;;19.90;99.90;;;;;;1919590;73;20129;-71
2021/08/20 14:15:10;;;;;;;;;;;19.80;99.90;;;;;;1919417;74;20451;-72
2021/08/20 14:17:36;;;;;;;;;;;19.70;99.90;;;;;;1919458;73;20106;-72
2021/08/20 14:20:08;;;;;;;;;;;19.70;99.90;;;;;;1919456;73;20118;-72
2021/08/20 14:22:36;;;;;;;;;;;19.60;99.90;;;;;;1919261;75;20239;-72